createdAt,value
2018-09-02T00:01:31.588Z,9.50
2018-09-02T00:03:59.913Z,8.30
2018-09-02T00:06:28.241Z,8.63
2018-09-02T00:08:56.559Z,8.50
2018-09-02T00:11:24.849Z,8.80
2018-09-02T00:13:53.172Z,9.20
2018-09-02T00:16:21.467Z,8.70
2018-09-02T00:18:49.791Z,10.00
2018-09-02T00:21:18.099Z,7.67
2018-09-02T00:23:46.423Z,10.47
2018-09-02T00:26:14.720Z,10.53
2018-09-02T00:28:43.040Z,8.80
2018-09-02T00:31:11.339Z,9.70
2018-09-02T00:33:39.705Z,12.03
2018-09-02T00:36:08.019Z,10.40
2018-09-02T00:38:36.328Z,9.40
2018-09-02T00:41:04.668Z,10.80
2018-09-02T00:43:33.711Z,11.47
2018-09-02T00:46:02.068Z,11.50
2018-09-02T00:48:30.380Z,12.90
2018-09-02T00:50:58.708Z,13.47
2018-09-02T00:53:27.040Z,13.10
2018-09-02T00:55:55.372Z,14.67
2018-09-02T00:58:23.988Z,14.93
2018-09-02T01:00:52.317Z,14.30
2018-09-02T01:03:20.660Z,14.57
2018-09-02T01:05:50.195Z,14.90
2018-09-02T01:08:18.524Z,15.33
2018-09-02T01:10:47.375Z,15.40
2018-09-02T01:13:15.708Z,12.80
2018-09-02T01:15:44.065Z,14.07
2018-09-02T01:18:12.369Z,14.90
2018-09-02T01:20:40.908Z,12.98
2018-09-02T01:23:09.292Z,13.23
2018-09-02T01:25:38.311Z,11.97
2018-09-02T01:28:06.616Z,12.53
2018-09-02T01:30:34.948Z,13.30
2018-09-02T01:33:03.264Z,13.30
2018-09-02T01:35:32.365Z,14.43
2018-09-02T01:38:01.532Z,14.80
2018-09-02T01:40:29.853Z,11.50
2018-09-02T01:42:58.159Z,13.60
2018-09-02T01:45:26.476Z,12.20
2018-09-02T01:47:54.776Z,14.07
2018-09-02T01:50:23.096Z,13.33
2018-09-02T01:52:51.403Z,12.70
2018-09-02T01:55:19.719Z,12.87
2018-09-02T01:57:48.028Z,12.88
2018-09-02T02:00:17.468Z,13.03
2018-09-02T02:02:46.349Z,9.30
2018-09-02T02:05:14.706Z,10.30
2018-09-02T02:07:43.017Z,13.07
2018-09-02T02:10:11.376Z,12.30
2018-09-02T02:12:39.724Z,12.33
2018-09-02T02:15:08.164Z,13.53
2018-09-02T02:17:36.649Z,10.00
2018-09-02T02:20:04.977Z,10.90
2018-09-02T02:22:33.606Z,14.37
2018-09-02T02:25:02.196Z,13.13
2018-09-02T02:27:30.537Z,14.18
2018-09-02T02:29:59.192Z,16.07
2018-09-02T02:32:27.770Z,16.25
2018-09-02T02:34:56.140Z,15.17
2018-09-02T02:37:24.448Z,14.00
2018-09-02T02:39:52.767Z,13.80
2018-09-02T02:42:21.089Z,13.32
2018-09-02T02:44:49.433Z,13.40
2018-09-02T02:47:17.744Z,14.60
2018-09-02T02:49:46.169Z,15.93
2018-09-02T02:52:14.483Z,18.32
2018-09-02T02:54:42.812Z,18.17
2018-09-02T02:57:11.291Z,19.70
2018-09-02T02:59:39.596Z,20.32
2018-09-02T03:02:08.016Z,18.00
2018-09-02T03:04:36.330Z,20.95
2018-09-02T03:07:04.680Z,22.90
2018-09-02T03:09:33.081Z,28.02
2018-09-02T03:12:01.408Z,23.07
2018-09-02T03:14:29.717Z,21.20
2018-09-02T03:16:58.040Z,22.87
2018-09-02T03:19:26.352Z,21.75
2018-09-02T03:21:54.683Z,20.60
2018-09-02T03:24:23.000Z,19.45
2018-09-02T03:26:51.336Z,20.05
2018-09-02T03:29:19.648Z,19.15
2018-09-02T03:31:47.972Z,18.60
2018-09-02T03:34:16.285Z,19.43
2018-09-02T03:36:44.620Z,17.57
2018-09-02T03:39:12.947Z,20.17
2018-09-02T03:41:41.280Z,15.00
2018-09-02T03:44:09.596Z,17.45
2018-09-02T03:46:37.929Z,17.07
2018-09-02T03:49:06.248Z,14.80
2018-09-02T03:51:34.572Z,15.97
2018-09-02T03:54:02.888Z,15.60
2018-09-02T03:56:31.205Z,15.80
2018-09-02T03:58:59.520Z,14.23
2018-09-02T04:01:27.858Z,13.83
2018-09-02T04:03:56.164Z,13.50
2018-09-02T04:06:24.504Z,15.17
2018-09-02T04:08:52.812Z,13.73
2018-09-02T04:11:21.177Z,14.53
2018-09-02T04:13:49.468Z,14.98
2018-09-02T04:16:17.793Z,13.30
2018-09-02T04:18:46.096Z,14.37
2018-09-02T04:21:14.445Z,13.07
2018-09-02T04:23:42.748Z,12.10
2018-09-02T04:26:11.076Z,13.77
2018-09-02T04:28:39.382Z,11.53
2018-09-02T04:31:07.717Z,13.70
2018-09-02T04:33:36.074Z,10.07
2018-09-02T04:36:04.367Z,11.90
2018-09-02T04:38:32.672Z,12.87
2018-09-02T04:41:01.001Z,10.97
2018-09-02T04:43:29.304Z,14.73
2018-09-02T04:45:57.628Z,15.63
2018-09-02T04:48:25.936Z,15.07
2018-09-02T04:50:54.284Z,14.37
2018-09-02T04:53:22.588Z,16.07
2018-09-02T04:55:50.911Z,14.47
2018-09-02T04:58:19.228Z,11.73
2018-09-02T05:00:47.549Z,13.80
2018-09-02T05:03:15.856Z,13.20
2018-09-02T05:05:44.208Z,10.53
2018-09-02T05:08:12.521Z,11.83
2018-09-02T05:10:40.836Z,12.00
2018-09-02T05:13:09.160Z,9.43
2018-09-02T05:15:37.471Z,11.27
2018-09-02T05:18:05.801Z,11.63
2018-09-02T05:20:34.163Z,11.07
2018-09-02T05:23:02.452Z,9.67
2018-09-02T05:25:30.762Z,9.30
2018-09-02T05:27:59.090Z,7.40
2018-09-02T05:30:27.412Z,9.83
2018-09-02T05:32:55.736Z,8.17
2018-09-02T05:35:24.048Z,7.43
2018-09-02T05:37:52.377Z,8.77
2018-09-02T05:40:20.680Z,7.80
2018-09-02T05:42:49.011Z,7.10
2018-09-02T05:45:17.319Z,8.40
2018-09-02T05:47:45.640Z,5.80
2018-09-02T05:50:13.931Z,6.17
2018-09-02T05:52:42.344Z,6.20
2018-09-02T05:55:10.648Z,6.33
2018-09-02T05:57:39.072Z,5.77
2018-09-02T06:00:07.333Z,6.60
2018-09-02T06:02:35.714Z,4.60
2018-09-02T06:05:04.221Z,5.40
2018-09-02T06:07:32.609Z,4.30
2018-09-02T06:10:00.917Z,3.93
2018-09-02T06:12:29.272Z,4.47
2018-09-02T06:14:57.572Z,4.47
2018-09-02T06:17:26.032Z,4.30
2018-09-02T06:19:54.228Z,4.87
2018-09-02T06:22:22.560Z,4.73
2018-09-02T06:24:51.322Z,7.03
2018-09-02T06:27:19.667Z,6.83
2018-09-02T06:29:47.977Z,7.17
2018-09-02T06:32:16.639Z,8.23
2018-09-02T06:34:44.948Z,9.37
2018-09-02T06:37:13.420Z,10.30
2018-09-02T06:39:41.811Z,9.35
2018-09-02T06:42:10.081Z,9.47
2018-09-02T06:44:38.390Z,11.00
2018-09-02T06:47:06.721Z,8.80
2018-09-02T06:49:35.028Z,9.98
2018-09-02T06:52:03.348Z,8.30
2018-09-02T06:54:31.728Z,9.17
2018-09-02T06:57:00.060Z,9.13
2018-09-02T06:59:28.367Z,9.00
2018-09-02T07:01:56.680Z,7.27
2018-09-02T07:04:25.000Z,7.50
2018-09-02T07:06:53.332Z,6.70
2018-09-02T07:09:21.631Z,5.93
2018-09-02T07:11:49.965Z,6.40
2018-09-02T07:14:18.495Z,6.27
2018-09-02T07:16:46.857Z,5.77
2018-09-02T07:19:15.176Z,5.33
2018-09-02T07:21:43.474Z,5.93
2018-09-02T07:24:11.791Z,5.67
2018-09-02T07:26:40.092Z,7.03
2018-09-02T07:29:08.436Z,7.03
2018-09-02T07:31:36.775Z,8.60
2018-09-02T07:34:05.087Z,7.27
2018-09-02T07:36:33.376Z,8.23
2018-09-02T07:39:01.704Z,8.67
2018-09-02T07:41:30.035Z,9.80
2018-09-02T07:43:58.377Z,7.10
2018-09-02T07:46:26.679Z,10.30
2018-09-02T07:48:55.000Z,10.80
2018-09-02T07:51:23.312Z,8.17
2018-09-02T07:53:51.632Z,12.00
2018-09-02T07:56:19.935Z,7.70
2018-09-02T07:58:48.260Z,10.03
2018-09-02T08:01:16.576Z,11.07
2018-09-02T08:03:44.904Z,10.90
2018-09-02T08:06:13.276Z,10.10
2018-09-02T08:08:41.671Z,10.83
2018-09-02T08:11:09.955Z,8.00
2018-09-02T08:13:38.278Z,8.27
2018-09-02T08:16:06.564Z,7.90
2018-09-02T08:18:34.889Z,6.67
2018-09-02T08:21:03.253Z,6.20
2018-09-02T08:23:31.576Z,5.80
2018-09-02T08:25:59.880Z,6.00
2018-09-02T08:28:28.204Z,5.53
2018-09-02T08:30:56.513Z,5.47
2018-09-02T08:33:24.829Z,5.00
2018-09-02T08:35:53.131Z,6.27
2018-09-02T08:38:21.465Z,5.80
2018-09-02T08:40:49.764Z,5.03
2018-09-02T08:43:19.103Z,5.33
2018-09-02T08:45:47.477Z,4.07
2018-09-02T08:48:16.132Z,4.37
2018-09-02T08:50:44.427Z,4.30
2018-09-02T08:53:12.770Z,4.00
2018-09-02T08:55:41.083Z,3.70
2018-09-02T08:58:09.410Z,3.90
2018-09-02T09:00:37.707Z,4.83
2018-09-02T09:03:06.850Z,4.07
2018-09-02T09:05:35.253Z,4.53
2018-09-02T09:08:03.693Z,3.23
2018-09-02T09:10:31.913Z,4.40
2018-09-02T09:13:00.260Z,4.33
2018-09-02T09:15:28.560Z,4.50
2018-09-02T09:17:56.885Z,4.20
2018-09-02T09:20:25.185Z,4.00
2018-09-02T09:22:53.510Z,4.20
2018-09-02T09:25:21.812Z,4.10
2018-09-02T09:27:50.149Z,3.37
2018-09-02T09:30:18.458Z,3.73
2018-09-02T09:32:46.804Z,4.03
2018-09-02T09:35:15.226Z,5.00
2018-09-02T09:37:43.682Z,3.20
2018-09-02T09:40:12.009Z,3.40
2018-09-02T09:42:40.325Z,4.60
2018-09-02T09:45:08.648Z,5.20
2018-09-02T09:47:36.945Z,4.00
2018-09-02T09:50:05.625Z,3.40
2018-09-02T09:52:33.924Z,7.20
2018-09-02T09:55:02.463Z,6.23
2018-09-02T09:57:30.765Z,7.77
2018-09-02T09:59:59.088Z,8.87
2018-09-02T10:02:27.601Z,7.83
2018-09-02T10:04:55.915Z,6.90
2018-09-02T10:07:24.246Z,10.57
2018-09-02T10:09:52.672Z,10.40
2018-09-02T10:12:20.936Z,13.00
2018-09-02T10:14:49.252Z,13.07
2018-09-02T10:17:17.579Z,9.47
2018-09-02T10:19:45.920Z,13.63
2018-09-02T10:22:14.228Z,8.07
2018-09-02T10:24:42.552Z,11.20
2018-09-02T10:27:10.860Z,8.23
2018-09-02T10:29:39.182Z,8.73
2018-09-02T10:32:07.505Z,9.50
2018-09-02T10:34:35.900Z,7.33
2018-09-02T10:37:04.211Z,12.20
2018-09-02T10:39:32.536Z,15.07
2018-09-02T10:42:00.936Z,11.30
2018-09-02T10:44:29.265Z,13.03
2018-09-02T10:46:57.576Z,17.07
2018-09-02T10:49:26.018Z,10.20
2018-09-02T10:51:54.335Z,9.63
2018-09-02T10:54:22.716Z,18.67
2018-09-02T10:56:51.028Z,11.77
2018-09-02T10:59:19.352Z,14.47
2018-09-02T11:01:47.673Z,15.80
2018-09-02T11:04:16.018Z,22.40
2018-09-02T11:06:44.515Z,18.90
2018-09-02T11:09:12.842Z,22.73
2018-09-02T11:11:41.153Z,22.20
2018-09-02T11:14:10.228Z,25.30
2018-09-02T11:16:38.808Z,18.03
2018-09-02T11:19:07.416Z,24.80
2018-09-02T11:21:35.833Z,15.40
2018-09-02T11:24:04.410Z,28.93
2018-09-02T11:26:32.729Z,17.73
2018-09-02T11:29:01.068Z,23.97
2018-09-02T11:31:29.408Z,20.00
2018-09-02T11:33:57.788Z,31.47
2018-09-02T11:36:26.169Z,21.17
2018-09-02T11:38:54.508Z,27.30
2018-09-02T11:41:22.824Z,20.23
2018-09-02T11:43:51.208Z,21.17
2018-09-02T11:46:19.644Z,27.17
2018-09-02T11:48:47.969Z,30.40
2018-09-02T11:51:16.301Z,23.50
2018-09-02T11:53:44.607Z,23.87
2018-09-02T11:56:12.970Z,23.07
2018-09-02T11:58:41.279Z,21.97
2018-09-02T12:01:09.804Z,31.70
2018-09-02T12:03:38.116Z,20.87
2018-09-02T12:06:06.470Z,31.07
2018-09-02T12:08:34.780Z,30.70
2018-09-02T12:11:03.196Z,32.37
2018-09-02T12:13:31.517Z,28.30
2018-09-02T12:15:59.836Z,23.20
2018-09-02T12:18:28.148Z,34.47
2018-09-02T12:20:56.476Z,33.10
2018-09-02T12:23:24.784Z,36.37
2018-09-02T12:25:53.143Z,30.90
2018-09-02T12:28:21.477Z,38.70
2018-09-02T12:30:49.896Z,35.10
2018-09-02T12:33:18.203Z,38.40
2018-09-02T12:35:46.680Z,35.13
2018-09-02T12:38:15.064Z,33.13
2018-09-02T12:40:43.396Z,39.23
2018-09-02T12:43:11.719Z,39.17
2018-09-02T12:45:40.104Z,36.17
2018-09-02T12:48:09.226Z,29.47
2018-09-02T12:50:37.605Z,30.10
2018-09-02T12:53:05.939Z,38.13
2018-09-02T12:55:34.388Z,39.30
2018-09-02T12:58:02.738Z,36.70
2018-09-02T13:00:33.415Z,38.80
2018-09-02T13:03:02.488Z,39.53
2018-09-02T13:05:31.472Z,43.87
2018-09-02T13:07:59.824Z,39.70
2018-09-02T13:10:28.141Z,37.30
2018-09-02T13:12:56.578Z,42.27
2018-09-02T13:15:24.944Z,40.90
2018-09-02T13:17:53.313Z,30.60
2018-09-02T13:20:21.643Z,39.53
2018-09-02T13:22:49.953Z,30.00
2018-09-02T13:25:18.273Z,29.23
2018-09-02T13:27:46.981Z,31.37
2018-09-02T13:30:15.343Z,36.70
2018-09-02T13:32:43.649Z,30.30
2018-09-02T13:35:11.987Z,36.70
2018-09-02T13:37:40.301Z,36.77
2018-09-02T13:40:09.042Z,37.27
2018-09-02T13:42:37.372Z,38.37
2018-09-02T13:45:06.292Z,38.80
2018-09-02T13:47:34.600Z,39.47
2018-09-02T13:50:02.960Z,38.20
2018-09-02T13:52:31.260Z,38.73
2018-09-02T13:54:59.587Z,31.93
2018-09-02T13:57:27.892Z,30.40
2018-09-02T13:59:56.226Z,31.00
2018-09-02T14:02:24.529Z,29.60
2018-09-02T14:04:52.832Z,27.47
2018-09-02T14:07:21.174Z,27.73
2018-09-02T14:09:49.485Z,26.70
2018-09-02T14:12:17.809Z,27.97
2018-09-02T14:14:46.128Z,26.20
2018-09-02T14:17:14.455Z,31.03
2018-09-02T14:19:42.781Z,28.07
2018-09-02T14:22:11.104Z,33.90
2018-09-02T14:24:39.432Z,34.70
2018-09-02T14:27:07.757Z,34.00
2018-09-02T14:29:36.079Z,31.80
2018-09-02T14:32:04.409Z,29.53
2018-09-02T14:34:32.717Z,30.40
2018-09-02T14:37:01.079Z,36.67
2018-09-02T14:39:29.383Z,38.20
2018-09-02T14:41:57.716Z,33.43
2018-09-02T14:44:26.029Z,33.30
2018-09-02T14:46:54.361Z,38.20
2018-09-02T14:49:22.690Z,32.67
2018-09-02T14:51:51.022Z,35.17
2018-09-02T14:54:19.335Z,28.90
2018-09-02T14:56:47.725Z,33.90
2018-09-02T14:59:15.999Z,31.50
2018-09-02T15:01:44.352Z,29.50
2018-09-02T15:04:12.684Z,31.70
2018-09-02T15:06:41.042Z,29.30
2018-09-02T15:09:09.972Z,31.20
2018-09-02T15:11:38.376Z,28.47
2018-09-02T15:14:06.696Z,35.93
2018-09-02T15:16:35.029Z,35.57
2018-09-02T15:19:03.341Z,30.43
2018-09-02T15:21:31.664Z,31.97
2018-09-02T15:23:59.969Z,34.60
2018-09-02T15:26:28.305Z,26.57
2018-09-02T15:28:56.603Z,27.03
2018-09-02T15:31:24.929Z,31.40
2018-09-02T15:33:53.236Z,30.83
2018-09-02T15:36:21.583Z,25.90
2018-09-02T15:38:49.892Z,31.90
2018-09-02T15:41:18.236Z,27.10
2018-09-02T15:43:46.537Z,29.63
2018-09-02T15:46:14.880Z,24.33
2018-09-02T15:48:43.191Z,24.90
2018-09-02T15:51:11.520Z,26.20
2018-09-02T15:53:39.837Z,28.17
2018-09-02T15:56:08.169Z,31.00
2018-09-02T15:58:36.483Z,29.60
2018-09-02T16:01:04.921Z,31.40
2018-09-02T16:03:33.177Z,29.47
2018-09-02T16:06:01.528Z,29.23
2018-09-02T16:08:29.832Z,30.30
2018-09-02T16:10:58.173Z,34.67
2018-09-02T16:13:26.478Z,37.43
2018-09-02T16:15:54.784Z,27.00
2018-09-02T16:18:23.116Z,39.93
2018-09-02T16:20:51.444Z,34.40
2018-09-02T16:23:19.773Z,36.03
2018-09-02T16:25:48.121Z,28.60
2018-09-02T16:28:16.452Z,36.27
2018-09-02T16:30:44.791Z,35.00
2018-09-02T16:33:13.208Z,37.23
2018-09-02T16:35:41.583Z,34.93
2018-09-02T16:38:09.911Z,27.50
2018-09-02T16:40:38.272Z,26.73
2018-09-02T16:43:06.595Z,33.03
2018-09-02T16:45:35.132Z,38.27
2018-09-02T16:48:03.452Z,33.43
2018-09-02T16:50:32.103Z,26.63
2018-09-02T16:53:00.523Z,35.90
2018-09-02T16:55:28.764Z,36.47
2018-09-02T16:57:57.120Z,29.40
2018-09-02T17:00:25.459Z,31.90
2018-09-02T17:02:53.880Z,29.43
2018-09-02T17:05:23.144Z,35.10
2018-09-02T17:07:52.421Z,25.47
2018-09-02T17:10:21.481Z,32.90
2018-09-02T17:12:50.375Z,29.00
2018-09-02T17:15:18.676Z,37.70
2018-09-02T17:17:47.004Z,35.20
2018-09-02T17:20:19.440Z,27.80
2018-09-02T17:22:47.769Z,35.43
2018-09-02T17:25:16.089Z,28.90
2018-09-02T17:27:44.415Z,38.00
2018-09-02T17:30:12.721Z,38.17
2018-09-02T17:32:41.084Z,29.30
2018-09-02T17:35:09.392Z,31.80
2018-09-02T17:37:37.716Z,32.90
2018-09-02T17:40:06.061Z,38.17
2018-09-02T17:42:34.599Z,28.80
2018-09-02T17:45:02.948Z,36.47
2018-09-02T17:47:31.433Z,28.67
2018-09-02T17:49:59.757Z,37.30
2018-09-02T17:52:28.085Z,35.83
2018-09-02T17:54:57.204Z,38.97
2018-09-02T17:57:25.538Z,40.17
2018-09-02T17:59:53.845Z,33.60
2018-09-02T18:02:22.224Z,37.27
2018-09-02T18:04:50.522Z,40.17
2018-09-02T18:07:19.104Z,40.57
2018-09-02T18:09:47.416Z,29.90
2018-09-02T18:12:15.831Z,28.90
2018-09-02T18:14:44.184Z,38.20
2018-09-02T18:17:12.495Z,36.10
2018-09-02T18:19:40.880Z,36.97
2018-09-02T18:22:09.213Z,29.67
2018-09-02T18:24:37.610Z,28.00
2018-09-02T18:27:06.232Z,32.47
2018-09-02T18:29:34.539Z,29.83
2018-09-02T18:32:02.876Z,39.10
2018-09-02T18:34:31.228Z,30.43
2018-09-02T18:36:59.541Z,34.77
2018-09-02T18:39:27.943Z,31.90
2018-09-02T18:41:56.214Z,28.27
2018-09-02T18:44:24.539Z,26.70
2018-09-02T18:46:52.959Z,27.20
2018-09-02T18:49:21.324Z,27.70
2018-09-02T18:51:49.763Z,25.50
2018-09-02T18:54:18.296Z,37.90
2018-09-02T18:56:46.576Z,27.00
2018-09-02T18:59:14.916Z,37.77
2018-09-02T19:01:43.232Z,40.10
2018-09-02T19:04:11.556Z,31.60
2018-09-02T19:06:39.913Z,41.37
2018-09-02T19:09:08.584Z,38.17
2018-09-02T19:11:36.942Z,42.03
2018-09-02T19:14:05.299Z,31.33
2018-09-02T19:16:33.616Z,40.40
2018-09-02T19:19:01.945Z,43.63
2018-09-02T19:21:30.260Z,41.93
2018-09-02T19:23:58.630Z,43.10
2018-09-02T19:26:26.952Z,38.00
2018-09-02T19:28:55.675Z,32.70
2018-09-02T19:31:24.035Z,44.57
2018-09-02T19:33:52.415Z,44.20
2018-09-02T19:36:20.885Z,43.70
2018-09-02T19:38:49.367Z,35.67
2018-09-02T19:41:17.731Z,43.37
2018-09-02T19:43:46.100Z,26.33
2018-09-02T19:46:14.409Z,41.87
2018-09-02T19:48:42.732Z,44.73
2018-09-02T19:51:11.043Z,41.17
2018-09-02T19:53:39.372Z,45.63
2018-09-02T19:56:07.688Z,45.27
2018-09-02T19:58:36.063Z,47.73
2018-09-02T20:01:04.403Z,46.87
2018-09-02T20:03:32.748Z,46.53
2018-09-02T20:06:01.121Z,42.90
2018-09-02T20:08:29.424Z,43.97
2018-09-02T20:10:57.844Z,46.63
2018-09-02T20:13:26.549Z,48.80
2018-09-02T20:15:54.875Z,46.93
2018-09-02T20:18:23.318Z,46.13
2018-09-02T20:20:51.644Z,25.80
2018-09-02T20:23:19.955Z,44.87
2018-09-02T20:25:48.288Z,23.67
2018-09-02T20:28:16.597Z,23.33
2018-09-02T20:30:44.912Z,22.73
2018-09-02T20:33:13.244Z,23.60
2018-09-02T20:35:41.568Z,33.60
2018-09-02T20:38:09.883Z,24.10
2018-09-02T20:40:38.212Z,43.00
2018-09-02T20:43:06.531Z,26.40
2018-09-02T20:45:34.852Z,31.80
2018-09-02T20:48:03.183Z,23.80
2018-09-02T20:50:31.587Z,31.73
2018-09-02T20:52:59.952Z,42.20
2018-09-02T20:55:28.276Z,28.80
2018-09-02T20:57:56.588Z,26.50
2018-09-02T21:00:24.916Z,27.20
2018-09-02T21:02:53.312Z,28.00
2018-09-02T21:05:21.612Z,37.10
2018-09-02T21:07:49.920Z,39.50
2018-09-02T21:10:18.245Z,28.63
2018-09-02T21:12:46.576Z,32.17
2018-09-02T21:15:15.127Z,43.50
2018-09-02T21:17:43.441Z,45.13
2018-09-02T21:20:11.773Z,45.47
2018-09-02T21:22:40.085Z,44.27
2018-09-02T21:25:08.411Z,25.90
2018-09-02T21:27:36.711Z,42.00
2018-09-02T21:30:05.048Z,45.10
2018-09-02T21:32:33.357Z,44.27
2018-09-02T21:35:02.286Z,27.27
2018-09-02T21:37:30.587Z,26.23
2018-09-02T21:39:58.925Z,28.10
2018-09-02T21:42:27.220Z,24.67
2018-09-02T21:44:55.557Z,30.27
2018-09-02T21:47:23.880Z,44.40
2018-09-02T21:49:52.200Z,44.40
2018-09-02T21:52:20.613Z,48.00
2018-09-02T21:54:48.941Z,47.20
2018-09-02T21:57:17.288Z,48.20
2018-09-02T21:59:45.617Z,49.50
2018-09-02T22:02:13.936Z,50.83
2018-09-02T22:04:42.267Z,50.30
2018-09-02T22:07:10.617Z,50.00
2018-09-02T22:09:38.933Z,50.00
2018-09-02T22:12:07.265Z,51.53
2018-09-02T22:14:35.618Z,51.80
2018-09-02T22:17:03.956Z,54.60
2018-09-02T22:19:32.265Z,57.93
2018-09-02T22:22:00.663Z,53.10
2018-09-02T22:24:28.968Z,56.00
2018-09-02T22:26:57.304Z,59.17
2018-09-02T22:29:25.625Z,51.80
2018-09-02T22:31:53.956Z,53.20
2018-09-02T22:34:22.253Z,34.03
2018-09-02T22:36:50.581Z,54.57
2018-09-02T22:39:18.903Z,52.17
2018-09-02T22:41:47.300Z,47.73
2018-09-02T22:44:15.572Z,40.80
2018-09-02T22:46:43.900Z,50.40
2018-09-02T22:49:12.296Z,50.93
2018-09-02T22:51:40.616Z,51.80
2018-09-02T22:54:08.929Z,51.70
2018-09-02T22:56:37.264Z,53.13
2018-09-02T22:59:05.568Z,42.37
2018-09-02T23:01:33.908Z,46.83
2018-09-02T23:04:02.241Z,50.60
2018-09-02T23:06:30.592Z,52.97
2018-09-02T23:08:58.903Z,53.50
2018-09-02T23:11:27.232Z,54.43
2018-09-02T23:13:55.540Z,52.10
2018-09-02T23:16:23.872Z,32.13
2018-09-02T23:18:52.184Z,50.43
2018-09-02T23:21:20.505Z,48.60
2018-09-02T23:23:48.812Z,51.53
2018-09-02T23:26:17.176Z,46.60
2018-09-02T23:28:45.501Z,47.27
2018-09-02T23:31:13.828Z,32.87
2018-09-02T23:33:42.132Z,27.57
2018-09-02T23:36:10.459Z,24.73
2018-09-02T23:38:38.801Z,39.50
2018-09-02T23:41:07.201Z,29.70
2018-09-02T23:43:35.512Z,31.20
2018-09-02T23:46:03.845Z,24.10
2018-09-02T23:48:32.154Z,41.03
2018-09-02T23:51:00.480Z,42.70
2018-09-02T23:53:28.801Z,43.73
2018-09-02T23:55:57.125Z,45.13
2018-09-02T23:58:25.435Z,42.87
